Time;durP1;ratioP1;P1;durP2;ratioP2;P2;SDS_P1;SDS_P2;PMS_P1;PMS_P2;Temp;Humidity;BMP_temperature;BMP_pressure;BME280_temperature;BME280_humidity;BME280_pressure;Samples;Min_cycle;Max_cycle;Signal;HPM_P1;HPM_P2
2020/12/03 00:01:14;;;;;;;59.60;20.48;;;1.30;99.90;;;;;;5011795;28;20042;-81
2020/12/03 00:03:44;;;;;;;65.35;22.63;;;1.30;99.90;;;;;;5019258;28;20101;-80
2020/12/03 00:06:26;;;;;;;62.88;22.25;;;1.40;99.90;;;;;;5002752;28;20050;-79
2020/12/03 00:09:08;;;;;;;69.28;23.33;;;1.50;99.90;;;;;;5011864;28;20064;-82
2020/12/03 00:11:38;;;;;;;70.03;21.83;;;1.50;99.90;;;;;;5006939;28;20030;-79
2020/12/03 00:14:03;;;;;;;63.83;22.40;;;1.50;99.90;;;;;;5007155;28;20065;-83
2020/12/03 00:16:31;;;;;;;64.93;23.20;;;1.50;99.90;;;;;;4966732;28;20034;-79
2020/12/03 00:18:57;;;;;;;59.35;22.42;;;1.40;99.90;;;;;;4980699;28;20034;-82
2020/12/03 00:21:42;;;;;;;67.18;23.10;;;1.30;99.90;;;;;;4998450;28;20049;-80
2020/12/03 00:24:11;;;;;;;63.83;21.25;;;1.30;99.90;;;;;;4947232;28;20050;-80
2020/12/03 00:26:37;;;;;;;66.30;23.70;;;1.30;99.90;;;;;;4974900;28;20463;-79
2020/12/03 00:29:04;;;;;;;69.40;22.85;;;1.40;99.90;;;;;;4980842;28;20132;-79
2020/12/03 00:31:29;;;;;;;61.22;22.08;;;1.40;99.90;;;;;;4965081;28;20737;-80
2020/12/03 00:33:56;;;;;;;64.22;23.40;;;1.40;99.90;;;;;;4961038;28;20048;-79
2020/12/03 00:36:21;;;;;;;59.78;21.13;;;1.40;99.90;;;;;;4959426;28;20712;-80
2020/12/03 00:38:48;;;;;;;58.63;22.33;;;1.50;99.90;;;;;;4966491;28;20101;-80
2020/12/03 00:41:15;;;;;;;66.57;22.77;;;1.40;99.90;;;;;;4951347;28;20038;-80
2020/12/03 00:43:41;;;;;;;69.88;24.10;;;1.30;99.90;;;;;;4991901;28;20037;-79
2020/12/03 00:46:06;;;;;;;65.93;22.23;;;1.30;99.90;;;;;;4962514;28;20107;-79
2020/12/03 00:48:32;;;;;;;64.00;21.75;;;1.40;99.90;;;;;;4968301;28;20398;-80
2020/12/03 00:50:58;;;;;;;63.80;23.60;;;1.40;99.90;;;;;;4955090;28;20526;-79
2020/12/03 00:53:23;;;;;;;64.53;23.88;;;1.40;99.90;;;;;;4970245;28;20037;-79
2020/12/03 00:55:49;;;;;;;55.90;21.38;;;1.50;99.90;;;;;;4959488;28;20044;-79
2020/12/03 00:58:15;;;;;;;63.63;22.73;;;1.50;99.90;;;;;;4975027;28;20056;-80
2020/12/03 01:00:40;;;;;;;54.08;20.90;;;1.50;99.90;;;;;;4944308;28;20041;-80
2020/12/03 01:03:07;;;;;;;63.25;22.70;;;1.50;99.90;;;;;;4972485;28;20415;-79
2020/12/03 01:05:32;;;;;;;65.53;22.77;;;1.50;99.90;;;;;;4962540;28;20053;-82
2020/12/03 01:07:58;;;;;;;59.70;22.05;;;1.50;99.90;;;;;;4957570;28;20049;-79
2020/12/03 01:10:26;;;;;;;62.45;22.83;;;1.50;99.90;;;;;;4965128;28;20034;-81
2020/12/03 01:12:52;;;;;;;59.42;20.63;;;1.60;99.90;;;;;;4948461;28;20100;-79
2020/12/03 01:15:19;;;;;;;62.38;22.40;;;1.50;99.90;;;;;;4950115;28;20460;-79
2020/12/03 01:17:45;;;;;;;59.30;21.77;;;1.50;99.90;;;;;;4948023;28;20096;-79
2020/12/03 01:20:23;;;;;;;65.10;23.85;;;1.60;99.90;;;;;;4966743;28;20935;-80
2020/12/03 01:22:49;;;;;;;64.72;24.50;;;1.60;99.90;;;;;;4956890;28;20516;-80
2020/12/03 01:25:18;;;;;;;63.95;21.15;;;1.50;99.90;;;;;;4956541;28;20065;-80
2020/12/03 01:27:44;;;;;;;63.50;22.27;;;1.60;99.90;;;;;;4959613;28;20132;-81
2020/12/03 01:30:10;;;;;;;66.35;23.98;;;1.60;99.90;;;;;;4967806;28;20064;-80
2020/12/03 01:32:36;;;;;;;61.05;22.15;;;1.60;99.90;;;;;;4961624;28;20714;-79
2020/12/03 01:35:04;;;;;;;61.53;22.77;;;1.60;99.90;;;;;;4977373;28;20041;-82
2020/12/03 01:37:30;;;;;;;60.92;21.67;;;1.60;99.90;;;;;;4971802;28;20027;-80
2020/12/03 01:39:55;;;;;;;64.80;23.50;;;1.50;99.90;;;;;;4989560;28;20459;-80
2020/12/03 01:42:21;;;;;;;68.60;22.17;;;1.50;99.90;;;;;;4972371;28;20084;-80
2020/12/03 01:44:51;;;;;;;61.50;23.08;;;1.50;99.90;;;;;;4989971;28;20138;-78
2020/12/03 01:47:30;;;;;;;58.35;22.52;;;1.50;99.90;;;;;;4996742;28;20045;-79
2020/12/03 01:49:57;;;;;;;61.33;22.88;;;1.60;99.90;;;;;;4966470;28;20038;-81
2020/12/03 01:52:22;;;;;;;61.83;22.98;;;1.60;99.90;;;;;;4980546;28;20034;-79
2020/12/03 01:54:48;;;;;;;70.40;25.08;;;1.60;99.90;;;;;;5012771;28;20030;-80
2020/12/03 01:57:58;;;;;;;68.82;22.65;;;1.60;99.90;;;;;;5009930;28;20030;-79
2020/12/03 02:00:24;;;;;;;59.53;22.38;;;1.60;99.90;;;;;;4922573;28;20052;-81
2020/12/03 02:02:52;;;;;;;64.72;24.63;;;1.60;99.90;;;;;;4925364;28;20039;-80
2020/12/03 02:05:26;;;;;;;66.55;25.02;;;1.60;99.90;;;;;;4963913;28;20397;-80
2020/12/03 02:07:51;;;;;;;;;;;1.60;99.90;;;;;;4989367;28;20061;-79
2020/12/03 02:10:23;;;;;;;65.88;23.17;;;1.70;99.90;;;;;;5007664;28;20431;-80
2020/12/03 02:12:49;;;;;;;73.47;24.77;;;1.60;99.90;;;;;;4960916;28;20049;-80
2020/12/03 02:15:17;;;;;;;81.32;23.58;;;1.60;99.90;;;;;;5011964;28;20108;-80
2020/12/03 02:17:43;;;;;;;64.35;22.60;;;1.70;99.90;;;;;;5008213;28;20576;-81
2020/12/03 02:20:16;;;;;;;60.95;23.35;;;1.70;99.90;;;;;;4982472;28;20081;-79
2020/12/03 02:22:42;;;;;;;62.70;24.13;;;1.70;99.90;;;;;;4981895;28;20046;-81
2020/12/03 02:25:08;;;;;;;62.05;23.95;;;1.70;99.90;;;;;;4981762;28;20046;-80
2020/12/03 02:27:35;;;;;;;74.45;25.75;;;1.70;99.90;;;;;;5006350;28;20121;-81
2020/12/03 02:30:04;;;;;;;70.45;25.38;;;1.60;99.90;;;;;;4977469;28;20087;-80
2020/12/03 02:32:30;;;;;;;72.75;24.75;;;1.70;99.90;;;;;;4984649;28;20025;-79
2020/12/03 02:34:55;;;;;;;65.72;24.58;;;1.70;99.90;;;;;;5000323;28;20546;-79
2020/12/03 02:37:22;;;;;;;64.25;23.33;;;1.70;99.90;;;;;;4985987;28;20448;-79
2020/12/03 02:39:47;;;;;;;70.97;25.05;;;1.70;99.90;;;;;;4985163;28;20050;-80
2020/12/03 02:42:14;;;;;;;59.17;24.15;;;1.70;99.90;;;;;;4982554;28;20161;-78
2020/12/03 02:44:45;;;;;;;60.20;22.20;;;1.80;99.90;;;;;;4961905;28;20038;-81
2020/12/03 02:47:13;;;;;;;64.55;23.67;;;1.70;99.90;;;;;;4983395;28;20522;-79
2020/12/03 02:49:42;;;;;;;72.03;24.45;;;1.80;99.90;;;;;;4952082;28;20091;-79
2020/12/03 02:52:13;;;;;;;62.78;24.38;;;1.70;99.90;;;;;;5004047;28;20034;-80
2020/12/03 02:54:40;;;;;;;76.97;23.13;;;1.70;99.90;;;;;;4979987;28;20133;-79
2020/12/03 02:57:06;;;;;;;69.72;23.92;;;1.70;99.90;;;;;;4981581;28;20582;-79
2020/12/03 02:59:31;;;;;;;63.78;23.85;;;1.80;99.90;;;;;;4998004;28;20101;-81
2020/12/03 03:01:57;;;;;;;65.70;22.02;;;1.80;99.90;;;;;;5009094;28;20042;-81
2020/12/03 03:04:25;;;;;;;72.50;24.80;;;1.80;99.90;;;;;;5024712;28;20032;-81
2020/12/03 03:06:51;;;;;;;61.83;23.83;;;1.80;99.90;;;;;;4998789;28;20073;-79
2020/12/03 03:09:16;;;;;;;65.18;23.25;;;1.80;99.90;;;;;;4999593;28;20033;-82
2020/12/03 03:11:42;;;;;;;72.43;23.75;;;1.70;99.90;;;;;;5025310;28;20048;-79
2020/12/03 03:14:07;;;;;;;77.32;24.88;;;1.80;99.90;;;;;;5015370;28;20163;-79
2020/12/03 03:16:33;;;;;;;63.25;24.23;;;1.70;99.90;;;;;;5009767;28;20064;-80
2020/12/03 03:18:59;;;;;;;68.72;24.58;;;1.70;99.90;;;;;;4977117;28;20061;-79
2020/12/03 03:21:25;;;;;;;69.30;25.70;;;1.70;99.90;;;;;;4983931;28;20084;-80
2020/12/03 03:23:51;;;;;;;67.38;25.08;;;1.70;99.90;;;;;;4988784;28;20134;-80
2020/12/03 03:26:17;;;;;;;80.47;27.77;;;1.70;99.90;;;;;;4973107;28;20068;-80
2020/12/03 03:28:42;;;;;;;73.78;26.02;;;1.50;99.90;;;;;;4998506;28;20083;-80
2020/12/03 03:31:08;;;;;;;74.82;26.08;;;1.50;99.90;;;;;;5014421;28;20045;-80
2020/12/03 03:33:34;;;;;;;77.95;27.40;;;1.50;99.90;;;;;;4988631;28;20061;-81
2020/12/03 03:35:59;;;;;;;72.80;26.17;;;1.50;99.90;;;;;;4993710;28;20036;-81
2020/12/03 03:38:25;;;;;;;88.78;28.52;;;1.50;99.90;;;;;;4975728;28;20049;-79
2020/12/03 03:40:51;;;;;;;76.78;27.77;;;1.50;99.90;;;;;;4964765;28;20875;-79
2020/12/03 03:43:17;;;;;;;75.80;28.73;;;1.50;99.90;;;;;;4976152;28;20041;-80
2020/12/03 03:45:42;;;;;;;76.18;29.63;;;1.60;99.90;;;;;;4987006;28;20473;-80
2020/12/03 03:48:08;;;;;;;79.72;28.02;;;1.50;99.90;;;;;;4963708;28;20100;-80
2020/12/03 03:50:33;;;;;;;71.60;27.85;;;1.50;99.90;;;;;;4975253;28;20057;-79
2020/12/03 03:52:59;;;;;;;78.60;27.98;;;1.40;99.90;;;;;;4968969;28;20065;-78
2020/12/03 03:55:24;;;;;;;78.82;29.05;;;1.50;99.90;;;;;;4982669;28;20043;-80
2020/12/03 03:57:50;;;;;;;78.35;29.13;;;1.50;99.90;;;;;;4986838;28;20038;-79
2020/12/03 04:00:17;;;;;;;77.18;29.52;;;1.50;99.90;;;;;;5006734;28;20048;-79
2020/12/03 04:02:44;;;;;;;79.68;28.98;;;1.50;99.90;;;;;;4953545;28;20037;-80
2020/12/03 04:05:11;;;;;;;70.55;25.60;;;1.40;99.90;;;;;;4989811;28;20143;-79
2020/12/03 04:07:36;;;;;;;76.07;27.27;;;1.40;99.90;;;;;;4968684;28;20069;-79
2020/12/03 04:10:04;;;;;;;82.40;27.80;;;1.40;99.90;;;;;;4979371;28;20031;-79
2020/12/03 04:12:29;;;;;;;75.50;27.50;;;1.40;99.90;;;;;;4979726;28;20541;-80
2020/12/03 04:14:55;;;;;;;78.28;29.77;;;1.50;99.90;;;;;;4976662;28;20034;-80
2020/12/03 04:17:20;;;;;;;75.55;26.88;;;1.50;99.90;;;;;;4970223;28;21004;-79
2020/12/03 04:19:46;;;;;;;82.60;28.25;;;1.50;99.90;;;;;;5008719;28;20044;-80
2020/12/03 04:22:11;;;;;;;75.43;26.58;;;1.40;99.90;;;;;;4999971;28;20046;-80
2020/12/03 04:24:37;;;;;;;72.57;26.00;;;1.50;99.90;;;;;;4968037;28;20133;-80
2020/12/03 04:27:02;;;;;;;77.05;25.67;;;1.50;99.90;;;;;;4987599;28;20093;-81
2020/12/03 04:29:28;;;;;;;70.05;25.88;;;1.50;99.90;;;;;;5001896;28;20045;-79
2020/12/03 04:31:53;;;;;;;79.57;27.60;;;1.50;99.90;;;;;;4962832;28;20046;-80
2020/12/03 04:34:19;;;;;;;68.97;26.70;;;1.50;99.90;;;;;;4984000;28;20038;-82
2020/12/03 04:36:44;;;;;;;78.03;27.85;;;1.70;99.90;;;;;;4959274;28;20137;-80
2020/12/03 04:39:10;;;;;;;74.70;26.23;;;1.50;99.90;;;;;;4989467;28;20038;-80
2020/12/03 04:41:36;;;;;;;73.43;26.42;;;1.60;99.90;;;;;;4990076;28;20053;-80
2020/12/03 04:44:10;;;;;;;77.68;25.90;;;1.60;99.90;;;;;;5022602;28;20037;-83
2020/12/03 04:46:49;;;;;;;;;;;1.60;99.90;;;;;;5004907;28;20018;-82
2020/12/03 04:49:36;;;;;;;70.28;23.70;;;1.60;99.90;;;;;;5016187;28;19924;-80
2020/12/03 04:52:14;;;;;;;68.63;25.75;;;1.60;99.90;;;;;;4986899;28;20049;-81
2020/12/03 04:54:53;;;;;;;65.38;24.38;;;1.70;99.90;;;;;;4958284;28;20146;-80
2020/12/03 04:57:25;;;;;;;64.05;25.13;;;1.70;99.90;;;;;;4992629;28;20048;-79
2020/12/03 04:59:59;;;;;;;61.53;23.63;;;1.70;99.90;;;;;;4990944;28;20143;-79
2020/12/03 05:02:40;;;;;;;62.15;23.85;;;1.70;99.90;;;;;;4985936;28;20478;-79
2020/12/03 05:05:15;;;;;;;59.08;22.25;;;1.70;99.90;;;;;;4964446;28;20044;-81
2020/12/03 05:07:44;;;;;;;72.75;24.20;;;1.70;99.90;;;;;;4966375;28;20060;-80
2020/12/03 05:10:22;;;;;;;55.97;23.65;;;1.70;99.90;;;;;;4961414;28;20125;-79
2020/12/03 05:12:48;;;;;;;58.45;24.10;;;1.80;99.90;;;;;;4958065;28;20034;-80
2020/12/03 05:15:23;;;;;;;59.83;22.70;;;1.80;99.90;;;;;;4968208;28;20037;-80
2020/12/03 05:18:13;;;;;;;57.67;22.52;;;1.80;99.90;;;;;;4986887;28;20590;-80
2020/12/03 05:20:49;;;;;;;65.10;24.33;;;1.90;99.90;;;;;;4990129;28;20037;-78
2020/12/03 05:23:21;;;;;;;63.75;24.02;;;1.90;99.90;;;;;;4935297;28;20034;-79
2020/12/03 05:25:49;;;;;;;61.17;23.08;;;1.90;99.90;;;;;;4977891;28;20104;-82
2020/12/03 05:28:21;;;;;;;55.17;24.13;;;1.90;99.90;;;;;;4985037;28;20148;-80
2020/12/03 05:30:57;;;;;;;52.58;20.25;;;1.90;99.90;;;;;;5004925;28;20036;-80
2020/12/03 05:33:23;;;;;;;50.13;18.42;;;2.00;99.90;;;;;;4956026;28;20046;-80
2020/12/03 05:35:50;;;;;;;46.75;18.15;;;2.00;99.90;;;;;;4962622;28;20497;-79
2020/12/03 05:38:24;;;;;;;50.30;19.80;;;2.00;99.90;;;;;;4991060;28;20034;-82
2020/12/03 05:41:02;;;;;;;55.20;21.20;;;2.00;99.90;;;;;;5014039;28;20580;-79
2020/12/03 05:43:29;;;;;;;45.10;18.02;;;2.00;99.90;;;;;;4977254;28;20037;-79
2020/12/03 05:46:02;;;;;;;45.70;16.58;;;2.10;99.90;;;;;;5026248;28;20160;-79
2020/12/03 05:48:28;;;;;;;46.25;19.13;;;2.20;99.90;;;;;;5006565;28;20390;-78
2020/12/03 05:50:55;;;;;;;44.35;17.35;;;2.20;99.90;;;;;;4998013;28;20041;-79
2020/12/03 05:53:25;;;;;;;39.00;16.75;;;2.20;99.90;;;;;;5004957;28;20038;-79
2020/12/03 05:55:52;;;;;;;55.67;17.92;;;2.20;99.90;;;;;;5018925;28;20072;-79
2020/12/03 05:58:44;;;;;;;42.83;16.98;;;2.30;99.90;;;;;;5010358;28;20037;-82
2020/12/03 06:01:22;;;;;;;32.33;14.55;;;2.30;99.90;;;;;;5006542;28;20093;-81
2020/12/03 06:04:17;;;;;;;36.72;14.77;;;2.30;99.90;;;;;;5017450;28;20358;-80
2020/12/03 06:07:42;;;;;;;38.08;15.13;;;2.30;99.90;;;;;;5000886;28;20038;-79
2020/12/03 06:10:21;;;;;;;34.25;14.63;;;2.40;99.50;;;;;;4920614;29;20046;-80
2020/12/03 06:13:11;;;;;;;34.65;14.13;;;2.40;99.50;;;;;;4920627;29;20071;-79
2020/12/03 06:15:45;;;;;;;32.25;13.32;;;2.40;99.50;;;;;;4989640;28;20077;-79
2020/12/03 06:18:20;;;;;;;32.55;13.90;;;2.40;99.30;;;;;;5016732;28;20117;-79
2020/12/03 06:21:13;;;;;;;30.02;13.55;;;2.40;99.00;;;;;;5009376;28;20517;-79
2020/12/03 06:24:06;;;;;;;30.38;12.75;;;2.40;98.80;;;;;;4993596;28;20038;-81
2020/12/03 06:27:05;;;;;;;29.35;11.85;;;2.40;97.20;;;;;;4988462;28;20506;-81
2020/12/03 06:30:01;;;;;;;26.90;12.15;;;2.50;95.50;;;;;;4986496;28;20041;-81
2020/12/03 06:32:47;;;;;;;32.45;12.63;;;2.50;93.90;;;;;;5004295;28;20041;-80
2020/12/03 06:35:44;;;;;;;28.05;12.57;;;2.50;93.80;;;;;;5005145;28;20042;-78
2020/12/03 06:38:56;;;;;;;26.80;11.93;;;2.60;93.60;;;;;;5004589;28;20045;-80
2020/12/03 06:41:33;;;;;;;30.20;11.38;;;2.60;92.30;;;;;;4992937;28;20656;-80
2020/12/03 06:44:11;;;;;;;24.40;10.88;;;2.60;91.90;;;;;;5017367;28;20048;-81
2020/12/03 06:47:16;;;;;;;23.92;9.88;;;2.70;92.00;;;;;;5005494;28;20045;-80
2020/12/03 06:49:57;;;;;;;26.13;11.63;;;2.60;92.60;;;;;;5001106;28;20042;-79
2020/12/03 06:52:54;;;;;;;24.27;12.50;;;2.60;92.50;;;;;;5007339;28;20371;-81
2020/12/03 06:55:39;;;;;;;25.75;12.15;;;2.60;93.30;;;;;;5009242;28;20089;-79
2020/12/03 06:58:20;;;;;;;27.20;12.48;;;2.60;92.80;;;;;;5019443;28;20029;-79
2020/12/03 07:01:10;;;;;;;30.70;12.68;;;2.60;93.40;;;;;;5003268;28;20045;-78
2020/12/03 07:04:06;;;;;;;29.10;13.18;;;2.60;93.60;;;;;;5009971;28;20081;-79
2020/12/03 07:06:55;;;;;;;33.03;13.07;;;2.60;93.70;;;;;;5006518;28;20053;-80
2020/12/03 07:09:54;;;;;;;26.35;12.38;;;2.70;93.40;;;;;;5008917;28;20518;-81
2020/12/03 07:12:35;;;;;;;29.40;13.23;;;3.10;93.30;;;;;;4999319;28;20683;-80
2020/12/03 07:15:32;;;;;;;29.65;12.05;;;2.70;93.30;;;;;;5008003;28;20037;-81
2020/12/03 07:18:35;;;;;;;28.30;13.20;;;2.70;93.50;;;;;;5009935;28;20038;-79
2020/12/03 07:21:21;;;;;;;24.63;12.80;;;2.70;93.50;;;;;;5006495;28;20091;-80
2020/12/03 07:23:50;;;;;;;27.30;11.68;;;3.10;93.60;;;;;;4961224;28;20415;-79
2020/12/03 07:26:39;;;;;;;29.30;13.25;;;2.70;92.70;;;;;;4987912;28;20065;-79
2020/12/03 07:29:17;;;;;;;32.30;13.35;;;2.70;92.80;;;;;;5004380;28;20038;-80
2020/12/03 07:31:46;;;;;;;32.75;14.02;;;2.70;93.00;;;;;;5012779;28;20038;-81
2020/12/03 07:34:22;;;;;;;34.45;14.55;;;2.80;93.40;;;;;;5029747;28;20061;-80
2020/12/03 07:37:21;;;;;;;29.88;13.27;;;2.80;93.10;;;;;;5008543;28;20045;-79
2020/12/03 07:39:50;;;;;;;23.27;11.88;;;2.80;92.70;;;;;;5009337;28;20474;-81
2020/12/03 07:42:23;;;;;;;24.42;11.02;;;2.80;92.20;;;;;;5009179;28;20041;-80
2020/12/03 07:44:53;;;;;;;25.75;12.05;;;2.80;92.20;;;;;;5006138;28;20063;-80
2020/12/03 07:47:35;;;;;;;22.13;10.98;;;2.80;92.00;;;;;;5023006;28;20033;-79
2020/12/03 07:50:27;;;;;;;31.25;12.00;;;2.80;91.70;;;;;;5024387;28;20034;-79
2020/12/03 07:53:15;;;;;;;26.55;12.00;;;2.80;91.70;;;;;;5026688;28;20082;-80
2020/12/03 07:55:42;;;;;;;23.88;11.10;;;2.90;92.00;;;;;;5012602;28;20034;-80
2020/12/03 07:58:35;;;;;;;25.48;12.63;;;2.90;91.70;;;;;;5010624;28;20046;-80
2020/12/03 08:01:03;;;;;;;24.92;11.57;;;2.90;91.80;;;;;;5013382;28;20072;-80
2020/12/03 08:03:46;;;;;;;35.88;11.02;;;2.90;91.70;;;;;;5012947;28;20273;-79
2020/12/03 08:06:16;;;;;;;25.13;10.60;;;3.00;91.60;;;;;;5010395;28;20057;-80
2020/12/03 08:09:04;;;;;;;22.27;10.40;;;3.00;91.20;;;;;;5013721;28;20046;-80
2020/12/03 08:11:58;;;;;;;27.55;11.00;;;3.00;90.20;;;;;;5014157;28;20030;-81
2020/12/03 08:14:43;;;;;;;20.97;9.50;;;3.00;90.30;;;;;;5017466;28;20063;-81
2020/12/03 08:17:20;;;;;;;27.20;9.63;;;3.00;90.30;;;;;;5012111;28;20072;-80
2020/12/03 08:20:17;;;;;;;21.50;9.32;;;3.00;89.40;;;;;;5010342;28;20036;-80
2020/12/03 08:22:48;;;;;;;16.83;7.50;;;3.10;88.90;;;;;;5005770;28;20111;-82
2020/12/03 08:25:30;;;;;;;16.63;8.32;;;3.10;87.80;;;;;;5012207;28;20110;-82
2020/12/03 08:28:01;;;;;;;19.60;6.22;;;3.20;84.50;;;;;;5016004;28;20038;-80
2020/12/03 08:30:41;;;;;;;16.00;6.88;;;3.30;80.40;;;;;;5012080;28;20034;-80
2020/12/03 08:33:11;;;;;;;25.02;7.47;;;3.30;79.70;;;;;;5012215;28;20041;-80
2020/12/03 08:35:39;;;;;;;15.82;7.63;;;3.40;79.80;;;;;;5010197;28;20400;-79
2020/12/03 08:38:05;;;;;;;21.42;8.38;;;3.40;80.30;;;;;;5007640;28;20083;-78
2020/12/03 08:40:34;;;;;;;21.60;8.15;;;3.40;81.20;;;;;;5020874;28;20048;-79
2020/12/03 08:43:08;;;;;;;15.80;7.90;;;3.40;81.00;;;;;;5005707;28;20145;-78
2020/12/03 08:45:42;;;;;;;22.30;9.07;;;3.30;81.50;;;;;;5005399;28;20038;-80
2020/12/03 08:48:13;;;;;;;18.90;8.40;;;3.40;81.90;;;;;;5007740;28;20084;-80
2020/12/03 08:50:39;;;;;;;15.80;8.15;;;3.60;82.60;;;;;;5022056;28;20400;-81
2020/12/03 08:53:09;;;;;;;16.70;7.32;;;3.40;81.20;;;;;;5007831;28;20038;-80
2020/12/03 08:55:38;;;;;;;20.50;8.70;;;3.40;82.30;;;;;;5005325;28;20120;-78
2020/12/03 08:58:05;;;;;;;18.88;8.98;;;3.50;82.60;;;;;;5007837;28;20950;-78
2020/12/03 09:00:35;;;;;;;28.45;9.85;;;3.50;82.10;;;;;;5005176;28;20026;-80
2020/12/03 09:03:04;;;;;;;21.27;9.32;;;3.40;82.00;;;;;;5004980;28;20596;-80
2020/12/03 09:05:29;;;;;;;18.30;9.35;;;3.50;82.50;;;;;;5008909;28;20046;-80
2020/12/03 09:07:57;;;;;;;20.83;10.25;;;3.50;82.30;;;;;;5009391;28;20072;-79
2020/12/03 09:10:24;;;;;;;31.20;10.40;;;3.50;82.40;;;;;;5003828;28;20113;-78
2020/12/03 09:12:51;;;;;;;24.40;10.93;;;3.50;83.00;;;;;;5006362;28;20532;-80
2020/12/03 09:15:18;;;;;;;20.98;10.70;;;3.50;83.40;;;;;;5019392;28;20046;-78
2020/12/03 09:17:54;;;;;;;28.90;10.82;;;3.60;83.80;;;;;;5006085;28;20033;-77
2020/12/03 09:20:19;;;;;;;25.60;11.02;;;3.40;83.30;;;;;;5022725;28;20046;-80
2020/12/03 09:22:45;;;;;;;22.80;10.80;;;3.40;83.90;;;;;;5014935;28;20045;-78
2020/12/03 09:25:13;;;;;;;24.55;10.70;;;3.40;84.70;;;;;;5017191;28;20504;-78
2020/12/03 09:27:43;;;;;;;27.70;12.38;;;3.40;83.90;;;;;;5016938;28;20045;-81
2020/12/03 09:30:29;;;;;;;26.73;11.15;;;3.40;84.30;;;;;;5032044;28;20069;-81
2020/12/03 09:33:03;;;;;;;21.70;10.75;;;3.40;84.10;;;;;;5007771;28;20351;-80
2020/12/03 09:35:31;;;;;;;29.92;11.18;;;3.50;82.70;;;;;;4995777;28;20125;-79
2020/12/03 09:38:02;;;;;;;23.38;11.30;;;3.40;83.00;;;;;;4993576;28;20125;-79
2020/12/03 09:40:28;;;;;;;22.50;10.35;;;3.60;82.30;;;;;;4994243;28;20046;-79
2020/12/03 09:42:56;;;;;;;22.33;11.02;;;3.80;81.10;;;;;;4987465;28;20041;-79
2020/12/03 09:45:41;;;;;;;20.65;9.98;;;3.90;81.20;;;;;;4985011;28;20065;-80
2020/12/03 09:48:12;;;;;;;26.83;10.48;;;3.90;79.90;;;;;;4985935;28;20054;-79
2020/12/03 09:50:43;;;;;;;25.45;12.23;;;4.00;80.70;;;;;;4983769;28;20041;-78
2020/12/03 09:53:21;;;;;;;33.30;13.45;;;4.10;81.60;;;;;;4989344;28;20030;-80
2020/12/03 09:55:48;;;;;;;22.55;10.95;;;4.10;81.00;;;;;;4999929;28;20038;-79
2020/12/03 09:58:20;;;;;;;26.45;10.80;;;4.10;80.80;;;;;;5016331;28;20172;-79
2020/12/03 10:00:48;;;;;;;24.33;11.13;;;4.10;80.40;;;;;;5016594;28;20121;-80
2020/12/03 10:03:32;;;;;;;23.27;10.73;;;4.10;81.10;;;;;;5011469;28;20037;-79
2020/12/03 10:06:19;;;;;;;26.75;11.68;;;4.10;80.60;;;;;;5004945;28;20561;-78
2020/12/03 10:09:07;;;;;;;23.45;11.00;;;4.20;80.40;;;;;;5004028;28;21281;-79
2020/12/03 10:12:10;;;;;;;22.02;8.93;;;4.20;79.90;;;;;;5008771;28;20085;-80
2020/12/03 10:15:08;;;;;;;21.17;9.65;;;4.30;78.70;;;;;;5010214;28;20046;-80
2020/12/03 10:17:52;;;;;;;25.13;10.00;;;4.10;78.20;;;;;;5010828;28;20089;-79
2020/12/03 10:20:19;;;;;;;23.40;10.10;;;4.10;77.80;;;;;;5005888;28;20117;-79
2020/12/03 10:23:04;;;;;;;20.13;10.02;;;4.10;78.10;;;;;;5009768;28;20685;-80
2020/12/03 10:25:30;;;;;;;;;;;4.10;77.50;;;;;;5011294;28;20490;-82
2020/12/03 10:28:00;;;;;;;18.13;8.95;;;4.20;77.00;;;;;;5012993;28;19917;-81
2020/12/03 10:30:37;;;;;;;26.98;10.77;;;4.20;76.40;;;;;;5012486;28;20038;-79
2020/12/03 10:33:14;;;;;;;30.63;11.90;;;4.20;76.30;;;;;;5004610;28;20721;-79
2020/12/03 10:35:50;;;;;;;15.93;8.93;;;4.30;75.80;;;;;;5008052;28;20041;-80
2020/12/03 10:38:22;;;;;;;18.95;8.90;;;4.40;76.20;;;;;;5013224;28;20756;-78
2020/12/03 10:40:55;;;;;;;19.48;10.00;;;4.40;75.30;;;;;;5010330;28;20041;-80
2020/12/03 10:43:31;;;;;;;21.90;8.68;;;4.50;75.40;;;;;;5007240;28;20041;-79
2020/12/03 10:46:01;;;;;;;17.77;8.90;;;4.60;74.10;;;;;;5007474;28;20029;-79
2020/12/03 10:48:33;;;;;;;18.42;9.20;;;4.50;73.90;;;;;;5008819;28;20041;-79
2020/12/03 10:51:02;;;;;;;25.30;8.90;;;4.50;73.40;;;;;;5025647;28;20057;-79
2020/12/03 10:53:29;;;;;;;16.10;8.52;;;4.60;72.90;;;;;;5039397;28;20029;-80
2020/12/03 10:56:05;;;;;;;19.98;9.18;;;4.70;72.30;;;;;;5027905;28;20034;-82
2020/12/03 10:59:10;;;;;;;17.90;8.13;;;4.60;71.80;;;;;;5014846;28;20038;-79
2020/12/03 11:01:37;;;;;;;15.88;8.20;;;4.50;71.70;;;;;;5020264;28;20046;-80
2020/12/03 11:04:08;;;;;;;15.20;7.97;;;4.40;71.40;;;;;;5023232;28;20614;-80
2020/12/03 11:06:34;;;;;;;33.30;10.02;;;4.30;72.10;;;;;;5017943;28;20068;-80
2020/12/03 11:09:01;;;;;;;17.25;8.35;;;4.20;72.50;;;;;;5016488;28;20574;-81
2020/12/03 11:11:33;;;;;;;17.15;8.57;;;4.40;72.20;;;;;;5023615;28;20049;-83
2020/12/03 11:14:00;;;;;;;19.38;8.77;;;4.30;72.00;;;;;;5025733;28;20068;-81
2020/12/03 11:16:32;;;;;;;18.73;8.95;;;4.40;72.30;;;;;;5020970;28;20097;-82
2020/12/03 11:19:02;;;;;;;18.98;9.68;;;4.40;72.00;;;;;;5014313;28;20116;-79
2020/12/03 11:21:32;;;;;;;18.08;8.15;;;4.50;72.30;;;;;;5008066;28;20034;-80
2020/12/03 11:24:07;;;;;;;15.52;7.95;;;4.10;71.90;;;;;;5024782;28;20026;-79
2020/12/03 11:26:34;;;;;;;18.95;8.45;;;4.10;72.50;;;;;;5010666;28;20029;-79
2020/12/03 11:29:11;;;;;;;20.60;8.18;;;4.20;72.10;;;;;;5019920;28;20102;-80
2020/12/03 11:31:37;;;;;;;19.17;8.88;;;4.10;72.40;;;;;;5012194;28;20486;-79
2020/12/03 11:34:03;;;;;;;17.13;8.50;;;4.20;72.50;;;;;;5006214;28;20044;-80
2020/12/03 11:36:37;;;;;;;13.98;7.57;;;4.10;71.80;;;;;;5005650;28;20064;-79
2020/12/03 11:39:04;;;;;;;13.65;7.28;;;4.10;71.60;;;;;;5003997;28;20041;-80
2020/12/03 11:49:24;;;;;;;19.52;8.48;;;4.20;72.60;;;;;;5017566;28;20048;-82
2020/12/03 11:51:50;;;;;;;15.02;8.05;;;4.30;72.10;;;;;;5016732;28;20034;-80
2020/12/03 11:54:15;;;;;;;17.92;7.25;;;4.20;71.20;;;;;;5011935;28;20102;-80
2020/12/03 11:56:41;;;;;;;13.00;6.07;;;4.20;71.00;;;;;;5007420;28;20421;-80
2020/12/03 11:59:12;;;;;;;15.98;6.90;;;4.20;71.60;;;;;;5015023;28;20038;-81
2020/12/03 12:01:38;;;;;;;17.45;7.75;;;4.20;71.20;;;;;;5016290;28;20069;-80
2020/12/03 12:04:07;;;;;;;13.05;6.88;;;4.20;71.40;;;;;;5029635;28;20038;-81
2020/12/03 12:06:42;;;;;;;15.35;6.38;;;4.20;72.10;;;;;;5015297;28;20061;-80
2020/12/03 12:09:20;;;;;;;17.27;7.80;;;4.30;72.40;;;;;;5016369;28;20038;-81
2020/12/03 12:11:46;;;;;;;20.58;7.75;;;4.40;72.00;;;;;;5012790;28;20034;-82
2020/12/03 12:14:12;;;;;;;15.65;7.20;;;4.30;72.10;;;;;;5015413;28;20045;-80
2020/12/03 12:16:38;;;;;;;15.43;6.53;;;4.30;71.50;;;;;;5014512;28;20042;-81
2020/12/03 12:19:04;;;;;;;17.13;7.45;;;4.30;71.70;;;;;;5018619;28;20061;-83
2020/12/03 12:21:32;;;;;;;20.38;8.65;;;4.40;71.90;;;;;;5021883;28;20042;-80
2020/12/03 12:23:58;;;;;;;25.45;7.53;;;4.50;72.20;;;;;;5028372;28;20041;-79
2020/12/03 12:26:24;;;;;;;17.65;8.13;;;4.50;71.70;;;;;;5024251;28;20494;-80
2020/12/03 12:28:49;;;;;;;17.00;7.95;;;4.50;71.90;;;;;;5015861;28;20050;-80
2020/12/03 12:31:16;;;;;;;23.60;8.35;;;4.50;71.90;;;;;;5010469;28;20026;-80
2020/12/03 12:33:42;;;;;;;13.98;7.28;;;4.40;71.50;;;;;;5009389;28;20037;-79
2020/12/03 12:36:08;;;;;;;19.77;7.32;;;4.30;72.00;;;;;;5014612;28;20094;-79
2020/12/03 12:38:34;;;;;;;16.35;6.85;;;4.40;72.10;;;;;;5028333;28;20049;-78
2020/12/03 12:40:59;;;;;;;15.98;8.07;;;4.50;72.60;;;;;;5030208;28;20057;-82
2020/12/03 12:43:25;;;;;;;22.50;7.50;;;4.50;72.60;;;;;;5014394;28;20060;-81
2020/12/03 12:45:50;;;;;;;15.95;7.93;;;4.50;72.20;;;;;;5008743;28;20041;-80
2020/12/03 12:48:16;;;;;;;20.80;7.20;;;4.50;72.30;;;;;;5014789;28;20037;-83
2020/12/03 12:50:41;;;;;;;18.58;7.60;;;4.50;72.40;;;;;;5007353;28;20129;-79
2020/12/03 12:53:07;;;;;;;14.70;6.57;;;4.30;72.90;;;;;;5006846;28;20032;-80
2020/12/03 12:55:33;;;;;;;16.00;7.40;;;4.40;73.00;;;;;;5019424;28;20053;-82
2020/12/03 12:57:59;;;;;;;18.50;7.65;;;4.30;72.90;;;;;;5015483;28;20026;-81
2020/12/03 13:00:25;;;;;;;16.83;7.55;;;4.40;73.10;;;;;;5016418;28;20089;-82
2020/12/03 13:02:51;;;;;;;16.00;7.40;;;4.40;72.90;;;;;;5018539;28;20119;-81
2020/12/03 13:05:18;;;;;;;20.65;7.30;;;4.30;73.30;;;;;;5017406;28;20064;-82
2020/12/03 13:07:43;;;;;;;20.55;7.15;;;4.40;73.60;;;;;;5017158;28;20140;-81
2020/12/03 13:10:09;;;;;;;19.58;7.05;;;4.30;73.10;;;;;;5019644;28;20461;-82
2020/12/03 13:12:34;;;;;;;14.82;7.15;;;4.30;73.60;;;;;;5017614;28;20094;-81
2020/12/03 13:15:00;;;;;;;15.88;7.07;;;4.40;73.50;;;;;;5016964;28;20133;-79